Airfield :
LOGIN :

Register | Disclaimer

   EN    FR    IT 

 










Legend :    VFR   Marginal VFR   IFR   Intensive IFR   Very Intensive IFR
Visi :
Ceiling :
>= 8 km
>= 3000ft
5 to 8 km
1000 to 3000 ft
1500m to 5 km
500 to 1000 ft
800 to 1500m
200 to 500 ft
< 800m
< 200 ft
Symbols :   Thunderstorms  Fog  Heavy snow  Heavy precipitations  Wind > 20 kt
SIGMETs :     Misc.  Thunderstorms  Icing  Turbulence  Mountain Waves  Volcanic Ashes







- Airport Elevation : 17 ft
- IATA code : CPH


EKCH - København - Kastrup (Copenhagen)

CURRENT METAR :
  • 141450Z 36005KT 320V030 9999 FEW026CB BKN033 22/16 Q1006 NOSIG

EXPIRED METARs :
  • 141420Z 31007KT 260V350 9999 FEW026CB BKN053 23/16 Q1006 TEMPO SHRA
  • 141350Z 21006KT 190V250 9999 FEW020CB BKN048 22/18 Q1006 TEMPO SHRA
  • 141320Z 23007KT 9999 FEW020CB BKN048 21/18 Q1006 TEMPO SHRA
  • 141250Z 20004KT 160V230 9999 -SHRA FEW020CB BKN047 20/18 Q1006 RETSRA TEMPO SHRA
  • 141220Z 25012KT 220V280 5000 SHRA SCT022CB BKN036 19/18 Q1006 TEMPO -SHRA

TAF TAF EKCH
Valid from the 14 at 12:00 until the 15 at 12:00 UTC


141055Z 1412/1512 22010KT 9999 SCT020
TEMPO 1412/1417 4000 SHRA BKN012 SCT020CB
PROB40
TEMPO 1412/1417 TSRA
TEMPO 1417/1424 -SHRA BKN012 SCT020CB
BECMG 1417/1419 30010KT
TEMPO 1500/1506 BKN012
No reported NOTAMs for that airfield.



MET'MAP, your aeronautical weather chart ! - Copyright ORBIFLY December 2007 - Disclaimer

ORBIFLY MET'MAP TEAM :

Programming & Development : Alexandra Zaïnal
Concept & Development : Baudouin d'Aumeries
Co-Development & Prog : Marc-Olivier Méhu
Technical & hardware support : Manuel Goepfert

Contact : metmap@orbifly.com




SOURCES & CREDITS :

   NOAA